GLO1623 SBCF-SBBR
Flight info
| Callsign | GLO1623 |
|---|---|
| Flight time | 1h 1m |
| Altitude | 38000 |
| Route | GIMPO UZ33 OPGOL |
| Aircraft | B737/M-SDFGIKLORWXY/LB1 |
Departure
| Time | 2026-05-08 02:06 |
|---|---|
| Airport | Tancredo Neves International Airport (SBCF) |
Arrival
| Time | 2026-05-08 03:08 |
|---|---|
| Airport | Presidente Juscelino Kubitschek International Airport (SBBR) |
| Time | Latitude | Longitude | Altitude | Speed | Heading |
|---|---|---|---|---|---|
| 2026-05-08 01:29 | -19.63289 | -43.96432 | 2820 ft | 0 kts | 56° |
| 2026-05-08 01:58 | -19.63296 | -43.96444 | 2824 ft | 3 kts | 48° |
| 2026-05-08 01:58 | -19.63314 | -43.96458 | 2823 ft | 3 kts | 16° |
| 2026-05-08 01:59 | -19.63334 | -43.96459 | 2824 ft | 3 kts | 327° |
| 2026-05-08 01:59 | -19.63343 | -43.96452 | 2824 ft | 1 kts | 319° |
| 2026-05-08 02:02 | -19.63342 | -43.96453 | 2818 ft | 1 kts | 319° |
| 2026-05-08 02:02 | -19.63324 | -43.96469 | 2822 ft | 8 kts | 319° |
| 2026-05-08 02:02 | -19.63262 | -43.96526 | 2820 ft | 15 kts | 319° |
| 2026-05-08 02:02 | -19.63192 | -43.96599 | 2820 ft | 12 kts | 283° |
| 2026-05-08 02:03 | -19.63235 | -43.96674 | 2820 ft | 12 kts | 226° |
| 2026-05-08 02:03 | -19.63258 | -43.96748 | 2822 ft | 12 kts | 301° |
| 2026-05-08 02:03 | -19.63195 | -43.96811 | 2820 ft | 14 kts | 319° |
| 2026-05-08 02:03 | -19.63118 | -43.96883 | 2820 ft | 16 kts | 319° |
| 2026-05-08 02:04 | -19.63027 | -43.96966 | 2821 ft | 18 kts | 319° |
| 2026-05-08 02:04 | -19.62927 | -43.97059 | 2821 ft | 20 kts | 319° |
| 2026-05-08 02:04 | -19.62874 | -43.97131 | 2821 ft | 11 kts | 271° |
| 2026-05-08 02:04 | -19.62896 | -43.97173 | 2822 ft | 0 kts | 229° |
| 2026-05-08 02:05 | -19.62912 | -43.97191 | 2819 ft | 9 kts | 229° |
| 2026-05-08 02:05 | -19.62981 | -43.97234 | 2819 ft | 14 kts | 154° |
| 2026-05-08 02:05 | -19.63141 | -43.97089 | 2818 ft | 62 kts | 139° |
| 2026-05-08 02:06 | -19.63643 | -43.96623 | 2819 ft | 127 kts | 139° |
| 2026-05-08 02:06 | -19.64449 | -43.95885 | 2826 ft | 178 kts | 141° |
| 2026-05-08 02:06 | -19.65443 | -43.95039 | 3404 ft | 183 kts | 140° |
| 2026-05-08 02:06 | -19.66417 | -43.94176 | 4176 ft | 180 kts | 134° |
| 2026-05-08 02:07 | -19.67320 | -43.93324 | 4965 ft | 181 kts | 131° |
| 2026-05-08 02:07 | -19.68305 | -43.92368 | 5242 ft | 211 kts | 131° |
| 2026-05-08 02:07 | -19.69653 | -43.91555 | 5646 ft | 240 kts | 168° |
| 2026-05-08 02:07 | -19.71331 | -43.91824 | 6285 ft | 254 kts | 209° |
| 2026-05-08 02:08 | -19.72640 | -43.93074 | 7115 ft | 253 kts | 233° |
| 2026-05-08 02:08 | -19.73472 | -43.94681 | 7996 ft | 248 kts | 262° |
| 2026-05-08 02:08 | -19.73393 | -43.96468 | 8824 ft | 242 kts | 293° |
| 2026-05-08 02:08 | -19.72543 | -43.97979 | 9628 ft | 239 kts | 317° |
| 2026-05-08 02:09 | -19.71197 | -43.98986 | 10378 ft | 238 kts | 338° |
| 2026-05-08 02:09 | -19.69675 | -43.99627 | 11101 ft | 239 kts | 342° |
| 2026-05-08 02:09 | -19.68095 | -44.00213 | 11876 ft | 242 kts | 343° |
| 2026-05-08 02:09 | -19.66491 | -44.00801 | 12637 ft | 245 kts | 343° |
| 2026-05-08 02:10 | -19.64869 | -44.01403 | 13408 ft | 248 kts | 342° |
| 2026-05-08 02:10 | -19.63229 | -44.02019 | 14167 ft | 251 kts | 342° |
| 2026-05-08 02:10 | -19.61568 | -44.02650 | 14837 ft | 255 kts | 342° |
| 2026-05-08 02:10 | -19.59900 | -44.03287 | 15499 ft | 260 kts | 342° |
| 2026-05-08 02:11 | -19.58185 | -44.03943 | 16202 ft | 264 kts | 341° |
| 2026-05-08 02:11 | -19.56417 | -44.04620 | 16870 ft | 270 kts | 341° |
| 2026-05-08 02:11 | -19.54641 | -44.05279 | 17377 ft | 282 kts | 343° |
| 2026-05-08 02:11 | -19.52686 | -44.05965 | 17533 ft | 307 kts | 343° |
| 2026-05-08 02:12 | -19.50570 | -44.06700 | 17645 ft | 331 kts | 343° |
| 2026-05-08 02:12 | -19.48300 | -44.07493 | 17801 ft | 354 kts | 343° |
| 2026-05-08 02:12 | -19.45886 | -44.08339 | 18013 ft | 373 kts | 343° |
| 2026-05-08 02:12 | -19.43386 | -44.09220 | 18482 ft | 383 kts | 342° |
| 2026-05-08 02:13 | -19.40851 | -44.10142 | 19043 ft | 387 kts | 342° |
| 2026-05-08 02:13 | -19.38327 | -44.11074 | 19642 ft | 390 kts | 341° |
| 2026-05-08 02:13 | -19.35750 | -44.12026 | 20197 ft | 395 kts | 341° |
| 2026-05-08 02:13 | -19.33135 | -44.12988 | 20736 ft | 399 kts | 341° |
| 2026-05-08 02:14 | -19.30487 | -44.13958 | 21285 ft | 404 kts | 341° |
| 2026-05-08 02:14 | -19.27865 | -44.15052 | 21801 ft | 409 kts | 330° |
| 2026-05-08 02:14 | -19.25604 | -44.16886 | 22333 ft | 411 kts | 316° |
| 2026-05-08 02:14 | -19.23522 | -44.18967 | 22910 ft | 414 kts | 315° |
| 2026-05-08 02:15 | -19.21428 | -44.21100 | 23401 ft | 419 kts | 315° |
| 2026-05-08 02:15 | -19.19307 | -44.23255 | 23841 ft | 424 kts | 315° |
| 2026-05-08 02:15 | -19.17188 | -44.25389 | 24295 ft | 426 kts | 315° |
| 2026-05-08 02:15 | -19.15022 | -44.27551 | 24773 ft | 428 kts | 315° |
| 2026-05-08 02:16 | -19.12843 | -44.29713 | 25248 ft | 430 kts | 315° |
| 2026-05-08 02:16 | -19.10648 | -44.31884 | 25697 ft | 433 kts | 315° |
| 2026-05-08 02:16 | -19.08441 | -44.34065 | 26149 ft | 436 kts | 315° |
| 2026-05-08 02:16 | -19.06212 | -44.36267 | 26608 ft | 439 kts | 315° |
| 2026-05-08 02:17 | -19.03971 | -44.38480 | 27041 ft | 441 kts | 314° |
| 2026-05-08 02:17 | -19.01717 | -44.40706 | 27466 ft | 444 kts | 314° |
| 2026-05-08 02:17 | -18.99460 | -44.42935 | 27883 ft | 447 kts | 314° |
| 2026-05-08 02:17 | -18.97187 | -44.45199 | 28282 ft | 449 kts | 314° |
| 2026-05-08 02:18 | -18.94943 | -44.47451 | 28687 ft | 452 kts | 314° |
| 2026-05-08 02:18 | -18.92658 | -44.49750 | 29085 ft | 454 kts | 313° |
| 2026-05-08 02:18 | -18.90356 | -44.52067 | 29483 ft | 457 kts | 313° |
| 2026-05-08 02:18 | -18.88047 | -44.54388 | 29866 ft | 460 kts | 313° |
| 2026-05-08 02:19 | -18.85716 | -44.56729 | 30213 ft | 463 kts | 313° |
| 2026-05-08 02:19 | -18.83372 | -44.59081 | 30517 ft | 465 kts | 313° |
| 2026-05-08 02:19 | -18.81044 | -44.61414 | 30825 ft | 468 kts | 313° |
| 2026-05-08 02:19 | -18.78668 | -44.63793 | 31122 ft | 470 kts | 313° |
| 2026-05-08 02:20 | -18.76286 | -44.66177 | 31443 ft | 472 kts | 313° |
| 2026-05-08 02:20 | -18.73906 | -44.68558 | 31850 ft | 471 kts | 313° |
| 2026-05-08 02:20 | -18.71532 | -44.70931 | 32323 ft | 469 kts | 313° |
| 2026-05-08 02:20 | -18.69166 | -44.73294 | 32787 ft | 467 kts | 312° |
| 2026-05-08 02:21 | -18.66833 | -44.75626 | 33179 ft | 467 kts | 312° |
| 2026-05-08 02:21 | -18.64472 | -44.77984 | 33551 ft | 468 kts | 312° |
| 2026-05-08 02:21 | -18.62108 | -44.80345 | 33937 ft | 467 kts | 311° |
| 2026-05-08 02:21 | -18.59752 | -44.82698 | 34296 ft | 466 kts | 311° |
| 2026-05-08 02:22 | -18.57398 | -44.85046 | 34676 ft | 463 kts | 311° |
| 2026-05-08 02:22 | -18.55062 | -44.87374 | 35062 ft | 461 kts | 311° |
| 2026-05-08 02:22 | -18.52727 | -44.89702 | 35386 ft | 460 kts | 311° |
| 2026-05-08 02:22 | -18.50404 | -44.92018 | 35694 ft | 459 kts | 311° |
| 2026-05-08 02:23 | -18.48076 | -44.94337 | 36041 ft | 458 kts | 311° |
| 2026-05-08 02:23 | -18.45768 | -44.96635 | 36391 ft | 455 kts | 311° |
| 2026-05-08 02:23 | -18.43468 | -44.98925 | 36710 ft | 454 kts | 310° |
| 2026-05-08 02:23 | -18.41202 | -45.01180 | 36990 ft | 453 kts | 310° |
| 2026-05-08 02:24 | -18.38908 | -45.03462 | 37300 ft | 452 kts | 310° |
| 2026-05-08 02:24 | -18.36626 | -45.05731 | 37593 ft | 450 kts | 310° |
| 2026-05-08 02:24 | -18.34349 | -45.07995 | 37873 ft | 450 kts | 310° |
| 2026-05-08 02:24 | -18.32074 | -45.10256 | 38088 ft | 450 kts | 310° |
| 2026-05-08 02:25 | -18.27482 | -45.14821 | 38071 ft | 454 kts | 310° |
| 2026-05-08 02:25 | -18.22925 | -45.19339 | 38049 ft | 449 kts | 310° |
| 2026-05-08 02:26 | -18.18397 | -45.23826 | 38068 ft | 445 kts | 310° |
| 2026-05-08 02:26 | -18.13897 | -45.28287 | 38066 ft | 442 kts | 310° |
| 2026-05-08 02:27 | -18.09448 | -45.32694 | 38058 ft | 440 kts | 310° |
| 2026-05-08 02:27 | -18.04984 | -45.37112 | 38076 ft | 439 kts | 310° |
| 2026-05-08 02:28 | -18.00525 | -45.41519 | 38062 ft | 441 kts | 310° |
| 2026-05-08 02:28 | -17.96072 | -45.45916 | 38073 ft | 442 kts | 310° |
| 2026-05-08 02:29 | -17.91573 | -45.50358 | 38064 ft | 444 kts | 310° |
| 2026-05-08 02:29 | -17.87059 | -45.54811 | 38080 ft | 446 kts | 310° |
| 2026-05-08 02:30 | -17.82520 | -45.59285 | 38073 ft | 448 kts | 310° |
| 2026-05-08 02:30 | -17.78001 | -45.63735 | 38066 ft | 448 kts | 310° |
| 2026-05-08 02:31 | -17.73453 | -45.68211 | 38065 ft | 448 kts | 310° |
| 2026-05-08 02:31 | -17.68901 | -45.72689 | 38060 ft | 447 kts | 310° |
| 2026-05-08 02:32 | -17.64365 | -45.77146 | 38061 ft | 446 kts | 310° |
| 2026-05-08 02:32 | -17.59861 | -45.81570 | 38057 ft | 444 kts | 310° |
| 2026-05-08 02:33 | -17.55373 | -45.85977 | 38048 ft | 443 kts | 310° |
| 2026-05-08 02:33 | -17.50875 | -45.90388 | 38043 ft | 442 kts | 311° |
| 2026-05-08 02:34 | -17.46376 | -45.94795 | 38048 ft | 441 kts | 311° |
| 2026-05-08 02:34 | -17.41890 | -45.99189 | 38052 ft | 441 kts | 311° |
| 2026-05-08 02:35 | -17.37432 | -46.03553 | 38041 ft | 441 kts | 311° |
| 2026-05-08 02:35 | -17.32944 | -46.07945 | 38032 ft | 441 kts | 311° |
| 2026-05-08 02:36 | -17.28451 | -46.12337 | 38038 ft | 441 kts | 311° |
| 2026-05-08 02:36 | -17.23982 | -46.16704 | 38033 ft | 442 kts | 311° |
| 2026-05-08 02:37 | -17.19479 | -46.21099 | 38041 ft | 442 kts | 311° |
| 2026-05-08 02:37 | -17.15004 | -46.25465 | 38033 ft | 442 kts | 311° |
| 2026-05-08 02:38 | -17.10503 | -46.29853 | 38032 ft | 442 kts | 311° |
| 2026-05-08 02:38 | -17.05997 | -46.34243 | 38040 ft | 442 kts | 311° |
| 2026-05-08 02:39 | -17.01520 | -46.38602 | 38043 ft | 442 kts | 311° |
| 2026-05-08 02:39 | -16.97774 | -46.42247 | 38039 ft | 441 kts | 311° |
| 2026-05-08 02:40 | -16.93276 | -46.46621 | 38024 ft | 441 kts | 311° |
| 2026-05-08 02:40 | -16.88784 | -46.50987 | 38033 ft | 440 kts | 311° |
| 2026-05-08 02:41 | -16.84324 | -46.55318 | 38036 ft | 440 kts | 311° |
| 2026-05-08 02:41 | -16.80385 | -46.60088 | 38064 ft | 429 kts | 298° |
| 2026-05-08 02:42 | -16.77109 | -46.65299 | 38047 ft | 428 kts | 297° |
| 2026-05-08 02:42 | -16.73849 | -46.70508 | 38039 ft | 429 kts | 298° |
| 2026-05-08 02:43 | -16.72180 | -46.73123 | 37623 ft | 436 kts | 298° |
| 2026-05-08 02:43 | -16.70513 | -46.75709 | 37139 ft | 434 kts | 298° |
| 2026-05-08 02:43 | -16.68820 | -46.78316 | 36569 ft | 433 kts | 299° |
| 2026-05-08 02:43 | -16.67129 | -46.80909 | 36132 ft | 429 kts | 299° |
| 2026-05-08 02:44 | -16.65457 | -46.83469 | 35700 ft | 425 kts | 299° |
| 2026-05-08 02:44 | -16.63799 | -46.86011 | 35260 ft | 422 kts | 299° |
| 2026-05-08 02:44 | -16.62148 | -46.88540 | 34834 ft | 420 kts | 300° |
| 2026-05-08 02:44 | -16.60505 | -46.91061 | 34415 ft | 417 kts | 300° |
| 2026-05-08 02:45 | -16.58898 | -46.93526 | 33962 ft | 416 kts | 300° |
| 2026-05-08 02:45 | -16.57276 | -46.96013 | 33500 ft | 413 kts | 300° |
| 2026-05-08 02:45 | -16.55660 | -46.98489 | 33061 ft | 411 kts | 300° |
| 2026-05-08 02:45 | -16.54055 | -47.00949 | 32640 ft | 408 kts | 300° |
| 2026-05-08 02:46 | -16.52456 | -47.03397 | 32227 ft | 406 kts | 301° |
| 2026-05-08 02:46 | -16.50873 | -47.05821 | 31821 ft | 403 kts | 301° |
| 2026-05-08 02:46 | -16.49318 | -47.08201 | 31427 ft | 401 kts | 301° |
| 2026-05-08 02:46 | -16.47751 | -47.10599 | 31044 ft | 398 kts | 301° |
| 2026-05-08 02:47 | -16.46197 | -47.12976 | 30650 ft | 396 kts | 301° |
| 2026-05-08 02:47 | -16.44642 | -47.15354 | 30270 ft | 395 kts | 301° |
| 2026-05-08 02:47 | -16.43096 | -47.17718 | 29826 ft | 393 kts | 301° |
| 2026-05-08 02:47 | -16.41579 | -47.20036 | 29381 ft | 390 kts | 302° |
| 2026-05-08 02:48 | -16.40055 | -47.22363 | 28947 ft | 387 kts | 302° |
| 2026-05-08 02:48 | -16.38431 | -47.24603 | 28584 ft | 386 kts | 313° |
| 2026-05-08 02:48 | -16.36390 | -47.26414 | 28370 ft | 391 kts | 320° |
| 2026-05-08 02:48 | -16.34194 | -47.28217 | 28161 ft | 411 kts | 320° |
| 2026-05-08 02:49 | -16.31891 | -47.30109 | 27936 ft | 430 kts | 320° |
| 2026-05-08 02:49 | -16.29529 | -47.32060 | 27710 ft | 446 kts | 320° |
| 2026-05-08 02:49 | -16.27067 | -47.34102 | 27469 ft | 453 kts | 320° |
| 2026-05-08 02:49 | -16.24602 | -47.36155 | 27212 ft | 453 kts | 320° |
| 2026-05-08 02:50 | -16.22152 | -47.38198 | 26635 ft | 451 kts | 320° |
| 2026-05-08 02:50 | -16.19712 | -47.40235 | 26055 ft | 445 kts | 320° |
| 2026-05-08 02:50 | -16.17334 | -47.42222 | 25470 ft | 441 kts | 320° |
| 2026-05-08 02:50 | -16.14950 | -47.44212 | 24878 ft | 438 kts | 320° |
| 2026-05-08 02:51 | -16.12575 | -47.46196 | 24238 ft | 436 kts | 321° |
| 2026-05-08 02:51 | -16.10207 | -47.48172 | 23616 ft | 435 kts | 321° |
| 2026-05-08 02:51 | -16.07858 | -47.50131 | 22968 ft | 431 kts | 321° |
| 2026-05-08 02:51 | -16.05555 | -47.52051 | 22399 ft | 426 kts | 321° |
| 2026-05-08 02:52 | -16.03253 | -47.53969 | 21859 ft | 421 kts | 321° |
| 2026-05-08 02:52 | -16.00978 | -47.55865 | 21296 ft | 417 kts | 321° |
| 2026-05-08 02:52 | -15.98722 | -47.57743 | 20727 ft | 413 kts | 321° |
| 2026-05-08 02:52 | -15.96492 | -47.59616 | 20170 ft | 409 kts | 319° |
| 2026-05-08 02:53 | -15.94669 | -47.61854 | 19612 ft | 406 kts | 300° |
| 2026-05-08 02:53 | -15.93388 | -47.64449 | 19125 ft | 400 kts | 296° |
| 2026-05-08 02:53 | -15.92196 | -47.67022 | 18426 ft | 392 kts | 296° |
| 2026-05-08 02:53 | -15.91036 | -47.69548 | 17442 ft | 390 kts | 296° |
| 2026-05-08 02:54 | -15.89857 | -47.72093 | 16683 ft | 391 kts | 296° |
| 2026-05-08 02:54 | -15.88673 | -47.74624 | 16256 ft | 383 kts | 297° |
| 2026-05-08 02:54 | -15.87513 | -47.77085 | 15835 ft | 376 kts | 297° |
| 2026-05-08 02:54 | -15.86365 | -47.79506 | 15316 ft | 372 kts | 297° |
| 2026-05-08 02:55 | -15.85236 | -47.81880 | 14901 ft | 369 kts | 297° |
| 2026-05-08 02:55 | -15.82992 | -47.86592 | 14111 ft | 356 kts | 297° |
| 2026-05-08 02:55 | -15.81919 | -47.88845 | 14027 ft | 340 kts | 297° |
| 2026-05-08 02:56 | -15.80889 | -47.91008 | 13928 ft | 326 kts | 297° |
| 2026-05-08 02:56 | -15.79905 | -47.93073 | 13833 ft | 313 kts | 297° |
| 2026-05-08 02:56 | -15.78961 | -47.95053 | 13744 ft | 300 kts | 297° |
| 2026-05-08 02:56 | -15.78064 | -47.96933 | 13658 ft | 288 kts | 298° |
| 2026-05-08 02:57 | -15.77380 | -47.98832 | 13519 ft | 279 kts | 279° |
| 2026-05-08 02:57 | -15.77349 | -48.00820 | 13313 ft | 271 kts | 268° |
| 2026-05-08 02:57 | -15.77480 | -48.02767 | 12843 ft | 270 kts | 268° |
| 2026-05-08 02:57 | -15.77628 | -48.04702 | 12363 ft | 268 kts | 268° |
| 2026-05-08 02:58 | -15.77771 | -48.06617 | 11896 ft | 267 kts | 268° |
| 2026-05-08 02:58 | -15.77907 | -48.08538 | 11433 ft | 265 kts | 269° |
| 2026-05-08 02:58 | -15.78034 | -48.10423 | 10989 ft | 264 kts | 269° |
| 2026-05-08 02:58 | -15.78159 | -48.12323 | 10572 ft | 262 kts | 269° |
| 2026-05-08 02:59 | -15.78280 | -48.14203 | 10163 ft | 260 kts | 269° |
| 2026-05-08 02:59 | -15.78400 | -48.16075 | 9731 ft | 259 kts | 270° |
| 2026-05-08 02:59 | -15.78518 | -48.17929 | 9386 ft | 253 kts | 270° |
| 2026-05-08 02:59 | -15.78783 | -48.19686 | 9224 ft | 243 kts | 250° |
| 2026-05-08 03:00 | -15.79789 | -48.21075 | 8853 ft | 245 kts | 217° |
| 2026-05-08 03:00 | -15.81304 | -48.21746 | 8628 ft | 234 kts | 188° |
| 2026-05-08 03:00 | -15.82866 | -48.21709 | 8381 ft | 221 kts | 166° |
| 2026-05-08 03:00 | -15.84349 | -48.21313 | 8024 ft | 216 kts | 162° |
| 2026-05-08 03:01 | -15.85772 | -48.20892 | 7650 ft | 213 kts | 162° |
| 2026-05-08 03:01 | -15.87206 | -48.20471 | 7217 ft | 214 kts | 162° |
| 2026-05-08 03:01 | -15.88640 | -48.20056 | 6812 ft | 213 kts | 162° |
| 2026-05-08 03:01 | -15.90070 | -48.19646 | 6456 ft | 212 kts | 162° |
| 2026-05-08 03:02 | -15.91372 | -48.19015 | 6101 ft | 205 kts | 132° |
| 2026-05-08 03:02 | -15.92049 | -48.17806 | 5769 ft | 193 kts | 98° |
| 2026-05-08 03:02 | -15.92026 | -48.16456 | 5500 ft | 188 kts | 72° |
| 2026-05-08 03:02 | -15.91457 | -48.15228 | 5507 ft | 190 kts | 59° |
| 2026-05-08 03:03 | -15.90782 | -48.14052 | 5457 ft | 188 kts | 59° |
| 2026-05-08 03:03 | -15.90116 | -48.12896 | 5465 ft | 186 kts | 59° |
| 2026-05-08 03:03 | -15.89452 | -48.11736 | 5470 ft | 187 kts | 61° |
| 2026-05-08 03:03 | -15.89151 | -48.10436 | 5432 ft | 188 kts | 87° |
| 2026-05-08 03:04 | -15.89076 | -48.09096 | 5380 ft | 188 kts | 83° |
| 2026-05-08 03:04 | -15.88964 | -48.07777 | 5339 ft | 171 kts | 83° |
| 2026-05-08 03:04 | -15.88882 | -48.06633 | 5246 ft | 153 kts | 84° |
| 2026-05-08 03:04 | -15.88809 | -48.05538 | 5232 ft | 151 kts | 84° |
| 2026-05-08 03:05 | -15.88741 | -48.04495 | 5242 ft | 141 kts | 84° |
| 2026-05-08 03:05 | -15.88676 | -48.03486 | 5187 ft | 139 kts | 84° |
| 2026-05-08 03:05 | -15.88610 | -48.02470 | 5096 ft | 140 kts | 84° |
| 2026-05-08 03:05 | -15.88545 | -48.01457 | 4947 ft | 144 kts | 84° |
| 2026-05-08 03:06 | -15.88479 | -48.00435 | 4788 ft | 140 kts | 84° |
| 2026-05-08 03:06 | -15.88415 | -47.99430 | 4596 ft | 138 kts | 84° |
| 2026-05-08 03:06 | -15.88351 | -47.98443 | 4423 ft | 139 kts | 85° |
| 2026-05-08 03:06 | -15.88285 | -47.97421 | 4247 ft | 145 kts | 85° |
| 2026-05-08 03:07 | -15.88217 | -47.96356 | 4035 ft | 151 kts | 86° |
| 2026-05-08 03:07 | -15.88156 | -47.95239 | 3826 ft | 159 kts | 85° |
| 2026-05-08 03:07 | -15.88073 | -47.94106 | 3583 ft | 160 kts | 86° |
| 2026-05-08 03:07 | -15.88002 | -47.92989 | 3481 ft | 139 kts | 85° |
| 2026-05-08 03:08 | -15.87952 | -47.92225 | 3475 ft | 66 kts | 86° |
| 2026-05-08 03:08 | -15.87933 | -47.91976 | 3468 ft | 21 kts | 81° |
| 2026-05-08 03:08 | -15.87894 | -47.91845 | 3467 ft | 19 kts | 66° |
| 2026-05-08 03:08 | -15.87829 | -47.91731 | 3462 ft | 17 kts | 56° |
| 2026-05-08 03:09 | -15.87775 | -47.91648 | 3460 ft | 11 kts | 56° |
| 2026-05-08 03:09 | -15.87743 | -47.91599 | 3460 ft | 7 kts | 56° |
| 2026-05-08 03:09 | -15.87700 | -47.91554 | 3461 ft | 12 kts | 16° |
| 2026-05-08 03:09 | -15.87596 | -47.91557 | 3464 ft | 17 kts | 356° |
| 2026-05-08 03:10 | -15.87481 | -47.91564 | 3469 ft | 16 kts | 356° |
| 2026-05-08 03:10 | -15.87381 | -47.91571 | 3470 ft | 12 kts | 356° |
| 2026-05-08 03:10 | -15.87299 | -47.91576 | 3470 ft | 12 kts | 356° |
| 2026-05-08 03:10 | -15.87219 | -47.91581 | 3471 ft | 11 kts | 356° |
| 2026-05-08 03:11 | -15.87141 | -47.91586 | 3471 ft | 11 kts | 356° |
| 2026-05-08 03:11 | -15.87066 | -47.91591 | 3469 ft | 11 kts | 356° |
| 2026-05-08 03:11 | -15.86995 | -47.91602 | 3471 ft | 10 kts | 328° |
| 2026-05-08 03:11 | -15.86975 | -47.91669 | 3471 ft | 10 kts | 288° |
| 2026-05-08 03:12 | -15.86919 | -47.91701 | 3471 ft | 10 kts | 326° |
| 2026-05-08 03:12 | -15.86906 | -47.91765 | 3471 ft | 9 kts | 268° |
| 2026-05-08 03:12 | -15.86852 | -47.91787 | 3471 ft | 7 kts | 359° |
| 2026-05-08 03:12 | -15.86844 | -47.91788 | 3471 ft | 0 kts | 359° |